Terminal Aerodrome Forecast
Issued by NWS

Home | Current Version | Previous Version | Graphics & Text | Print | Product List | Glossary On
Versions: 1 2 3 4 5 6 7 8 9 10 11 12 13 14 15
000
FTUS43 KMPX 192339
TAFRWF
TAF
KRWF 192339Z 2000/2024 15013KT P6SM OVC200 WS020/20045KT
     FM200900 16013KT P6SM OVC040
     FM201400 16012KT 4SM -SHRA BR VCTS BKN020CB
     FM201800 20012KT P6SM BKN015
     FM202100 24013G21KT P6SM BKN035
     FM202300 28013G21KT P6SM SCT040 SCT150=

USA.gov is the U.S. government's official web portal to all federal, state and local government web resources and services.